Time;durP1;ratioP1;P1;durP2;ratioP2;P2;SDS_P1;SDS_P2;PMS_P1;PMS_P2;Temp;Humidity;BMP_temperature;BMP_pressure;BME280_temperature;BME280_humidity;BME280_pressure;Samples;Min_cycle;Max_cycle;Signal;HPM_P1;HPM_P2
2023/11/07 00:02:23;;;;;;;6.03;1.50;;;9.10;99.90;;;8.75;100.00;99761.25;5025611;28;20084;-77
2023/11/07 00:04:51;;;;;;;5.65;1.60;;;9.10;99.90;;;8.68;100.00;99755.03;5027534;28;20056;-78
2023/11/07 00:07:23;;;;;;;5.45;1.50;;;9.10;99.90;;;8.74;100.00;99751.41;5029410;28;20060;-79
2023/11/07 00:09:49;;;;;;;7.00;1.60;;;9.10;99.90;;;8.79;100.00;99775.22;5028360;28;20037;-79
2023/11/07 00:12:16;;;;;;;6.75;1.55;;;9.20;99.90;;;8.79;100.00;99767.06;5027174;28;20534;-79
2023/11/07 00:14:42;;;;;;;8.40;1.70;;;9.20;99.90;;;8.73;100.00;99763.34;5027507;28;20040;-78
2023/11/07 00:17:09;;;;;;;4.18;1.50;;;9.10;99.90;;;8.73;100.00;99776.94;5027655;28;20150;-78
2023/11/07 00:19:35;;;;;;;5.32;1.50;;;9.10;99.90;;;8.70;100.00;99782.84;5029777;28;20120;-77
2023/11/07 00:22:01;;;;;;;6.53;1.50;;;9.10;99.90;;;8.73;100.00;99770.69;5028960;28;20125;-80
2023/11/07 00:24:27;;;;;;;4.68;1.40;;;9.10;99.90;;;8.77;100.00;99774.59;5024220;28;20053;-78
2023/11/07 00:26:53;;;;;;;7.35;1.40;;;9.20;99.90;;;8.78;100.00;99779.84;5028182;28;20044;-79
2023/11/07 00:29:22;;;;;;;10.27;1.60;;;9.10;99.90;;;8.78;100.00;99777.13;5028760;28;20410;-78
2023/11/07 00:31:52;;;;;;;6.75;1.73;;;9.20;99.90;;;8.84;100.00;99790.88;5029375;28;20095;-78
2023/11/07 00:34:19;;;;;;;9.15;1.50;;;9.20;99.90;;;8.83;100.00;99791.91;5026724;28;20030;-78
2023/11/07 00:36:46;;;;;;;6.70;1.23;;;9.20;99.90;;;8.92;100.00;99787.84;5026124;28;20539;-78
2023/11/07 00:39:16;;;;;;;4.88;1.33;;;9.30;99.90;;;8.90;100.00;99787.22;5026747;28;20033;-78
2023/11/07 00:41:43;;;;;;;4.47;1.30;;;9.30;99.90;;;8.93;100.00;99794.94;5028084;28;20038;-79
2023/11/07 00:44:09;;;;;;;6.03;1.58;;;9.30;99.90;;;8.89;100.00;99800.00;5043977;28;20401;-80
2023/11/07 00:46:35;;;;;;;6.65;1.55;;;9.30;99.90;;;8.90;100.00;99792.66;5025278;28;20037;-78
2023/11/07 00:49:01;;;;;;;6.95;1.45;;;9.30;99.90;;;8.92;100.00;99799.56;5027795;28;20136;-79
2023/11/07 00:51:27;;;;;;;6.70;1.60;;;9.30;99.90;;;8.95;100.00;99813.75;5026575;28;20033;-79
2023/11/07 00:53:53;;;;;;;7.20;1.20;;;9.30;99.90;;;9.01;100.00;99818.28;5020893;28;20112;-80
2023/11/07 00:56:19;;;;;;;9.98;1.23;;;9.30;99.90;;;9.00;100.00;99812.00;5015671;28;20443;-79
2023/11/07 00:58:47;;;;;;;7.13;1.50;;;9.40;99.90;;;9.10;100.00;99807.94;5032367;28;20025;-79
2023/11/07 01:01:16;;;;;;;3.83;1.38;;;9.50;99.90;;;9.21;100.00;99821.63;5018040;28;20540;-80
2023/11/07 01:03:44;;;;;;;8.57;1.40;;;9.60;99.90;;;9.20;100.00;99828.13;5022092;28;20092;-79
2023/11/07 01:06:10;;;;;;;4.07;1.15;;;9.50;99.90;;;9.06;100.00;99810.28;5017765;28;20036;-78
2023/11/07 01:08:35;;;;;;;6.70;1.60;;;9.50;99.90;;;9.16;100.00;99831.50;5036142;28;20041;-79
2023/11/07 01:11:01;;;;;;;8.57;1.50;;;9.50;99.90;;;9.14;100.00;99823.56;5023909;28;20069;-78
2023/11/07 01:13:27;;;;;;;4.72;1.55;;;9.50;99.90;;;9.09;100.00;99825.31;5020474;28;20050;-79
2023/11/07 01:15:53;;;;;;;6.18;1.60;;;9.50;99.90;;;9.07;100.00;99823.66;5017807;28;20079;-78
2023/11/07 01:18:19;;;;;;;4.90;1.30;;;9.40;99.90;;;9.03;100.00;99836.06;5032892;28;20034;-80
2023/11/07 01:20:45;;;;;;;5.70;1.55;;;9.40;99.90;;;9.14;100.00;99831.72;5012564;28;20125;-79
2023/11/07 01:23:13;;;;;;;6.60;1.50;;;9.40;99.90;;;9.16;100.00;99848.69;5033933;28;20037;-78
2023/11/07 01:25:39;;;;;;;6.23;1.50;;;9.50;99.90;;;9.21;100.00;99847.97;5012451;28;20070;-79
2023/11/07 01:28:06;;;;;;;4.70;1.42;;;9.50;99.90;;;9.23;100.00;99848.59;5027637;28;20358;-78
2023/11/07 01:30:32;;;;;;;4.03;1.30;;;9.50;99.90;;;9.24;100.00;99850.25;5026200;28;20129;-78
2023/11/07 01:32:58;;;;;;;5.53;1.33;;;9.60;99.90;;;9.25;100.00;99849.19;5021380;28;20060;-78
2023/11/07 01:35:25;;;;;;;6.57;1.45;;;9.60;99.90;;;9.27;100.00;99855.22;5012421;28;20052;-79
2023/11/07 01:37:51;;;;;;;4.63;1.25;;;9.60;99.90;;;9.38;100.00;99850.09;5012129;28;20046;-79
2023/11/07 01:40:17;;;;;;;6.78;1.80;;;9.70;99.90;;;9.53;100.00;99858.69;5017548;28;20116;-79
2023/11/07 01:42:45;;;;;;;4.18;1.42;;;9.80;99.90;;;9.53;100.00;99872.31;5009791;28;20049;-78
2023/11/07 01:45:11;;;;;;;7.93;1.43;;;9.80;99.90;;;9.53;100.00;99868.75;5015783;28;20041;-78
2023/11/07 01:47:39;;;;;;;8.30;1.50;;;9.80;99.90;;;9.50;100.00;99859.16;5016415;28;20030;-79
2023/11/07 01:50:13;;;;;;;3.50;1.23;;;9.90;99.90;;;9.56;100.00;99869.16;5010871;28;20030;-78
2023/11/07 01:52:40;;;;;;;6.18;1.58;;;9.90;99.90;;;9.49;100.00;99865.66;5013693;28;20392;-78
2023/11/07 01:55:11;;;;;;;6.15;1.48;;;9.90;99.90;;;9.56;100.00;99869.16;5017161;28;20033;-78
2023/11/07 01:57:41;;;;;;;5.45;1.40;;;9.90;99.90;;;9.45;100.00;99856.28;5012192;28;20026;-79
2023/11/07 02:00:12;;;;;;;7.82;1.42;;;9.80;99.90;;;9.35;100.00;99857.66;5039297;28;20045;-79
2023/11/07 02:02:42;;;;;;;8.20;1.48;;;9.80;99.90;;;9.39;100.00;99866.19;5020798;28;20084;-78
2023/11/07 02:05:09;;;;;;;4.28;1.33;;;9.70;99.90;;;9.37;100.00;99881.09;5012143;28;20038;-78
2023/11/07 02:07:37;;;;;;;5.60;1.40;;;9.70;99.90;;;9.42;100.00;99878.53;5015590;28;20086;-79
2023/11/07 02:10:05;;;;;;;6.18;1.60;;;9.70;99.90;;;9.35;100.00;99857.66;5026431;28;20033;-78
2023/11/07 02:12:31;;;;;;;8.32;1.40;;;9.80;99.90;;;9.43;100.00;99870.16;5015725;28;20509;-78
2023/11/07 02:14:57;;;;;;;7.10;1.80;;;9.70;99.90;;;9.42;100.00;99873.09;5013773;28;20077;-78
2023/11/07 02:17:24;;;;;;;7.15;1.17;;;9.80;99.90;;;9.47;100.00;99884.97;5012402;28;20088;-78
2023/11/07 02:19:50;;;;;;;6.25;1.40;;;9.80;99.90;;;9.48;100.00;99870.28;5015398;28;20038;-78
2023/11/07 02:22:20;;;;;;;4.88;1.55;;;9.80;99.90;;;9.49;100.00;99871.94;5027042;28;20038;-78
2023/11/07 02:24:46;;;;;;;7.10;1.60;;;9.80;99.90;;;9.49;100.00;99882.00;5026575;28;20041;-78
2023/11/07 02:27:12;;;;;;;6.90;1.77;;;9.80;99.90;;;9.44;100.00;99860.91;5027183;28;20092;-79
2023/11/07 02:29:38;;;;;;;5.43;1.50;;;9.80;99.90;;;9.50;100.00;99864.59;5011792;28;20104;-80
2023/11/07 02:32:04;;;;;;;5.38;1.40;;;9.80;99.90;;;9.53;100.00;99869.56;5014588;28;20392;-78
2023/11/07 02:34:30;;;;;;;5.43;1.30;;;9.80;99.90;;;9.60;100.00;99864.91;5012297;28;20041;-79
2023/11/07 02:36:56;;;;;;;4.95;1.15;;;9.90;99.90;;;9.59;100.00;99865.13;5015286;28;20401;-79
2023/11/07 02:39:22;;;;;;;5.15;1.20;;;9.80;99.90;;;9.51;100.00;99871.69;5016758;28;20041;-79
2023/11/07 02:41:47;;;;;;;9.23;1.60;;;9.80;99.90;;;9.39;100.00;99868.91;5015117;28;20053;-80
2023/11/07 02:44:15;;;;;;;6.00;1.35;;;9.70;99.90;;;9.39;100.00;99868.09;5014758;28;20042;-79
2023/11/07 02:46:41;;;;;;;6.68;1.60;;;9.60;99.90;;;9.26;100.00;99871.81;5014911;28;20064;-79
2023/11/07 02:49:07;;;;;;;4.32;1.30;;;9.50;99.90;;;9.21;100.00;99867.88;5031482;28;20481;-79
2023/11/07 02:51:33;;;;;;;5.38;1.55;;;9.50;99.90;;;9.27;100.00;99870.75;5011364;28;20045;-78
2023/11/07 02:53:59;;;;;;;4.47;1.40;;;9.60;99.90;;;9.28;100.00;99867.81;5018115;28;20457;-79
2023/11/07 02:56:29;;;;;;;6.38;1.40;;;9.50;99.90;;;9.33;100.00;99870.69;5017163;28;20482;-78
2023/11/07 02:58:55;;;;;;;3.15;1.15;;;9.60;99.90;;;9.34;100.00;99876.94;5015523;28;20062;-79
2023/11/07 03:01:22;;;;;;;5.32;1.52;;;9.60;99.90;;;9.33;100.00;99862.50;5035406;28;20065;-79
2023/11/07 03:03:51;;;;;;;6.55;1.63;;;9.60;99.90;;;9.34;100.00;99863.31;5020129;28;20030;-79
2023/11/07 03:06:18;;;;;;;5.28;1.23;;;9.60;99.90;;;9.38;100.00;99867.25;5011606;28;20600;-78
2023/11/07 03:08:44;;;;;;;5.78;1.38;;;9.70;99.90;;;9.42;100.00;99867.63;5016503;28;20046;-78
2023/11/07 03:11:10;;;;;;;6.30;1.50;;;9.70;99.90;;;9.38;100.00;99861.81;5011345;28;20777;-79
2023/11/07 03:13:35;;;;;;;5.53;2.45;;;9.70;99.90;;;9.39;100.00;99876.25;5016933;28;20079;-78
2023/11/07 03:16:06;;;;;;;4.07;1.30;;;9.70;99.90;;;9.46;100.00;99882.44;5012408;28;20505;-79
2023/11/07 03:18:32;;;;;;;7.28;1.50;;;9.70;99.90;;;9.42;100.00;99878.53;5014414;28;20149;-79
2023/11/07 03:20:58;;;;;;;6.13;1.40;;;9.70;99.90;;;9.46;100.00;99874.28;5011191;28;20109;-80
2023/11/07 03:23:24;;;;;;;5.72;1.40;;;9.70;99.90;;;9.46;100.00;99880.56;5033343;28;20092;-79
2023/11/07 03:25:52;;;;;;;6.18;1.23;;;9.70;99.90;;;9.38;100.00;99874.59;5023181;28;20443;-79
2023/11/07 03:28:20;;;;;;;;;;;9.80;99.90;;;9.54;100.00;99881.31;5019682;28;20505;-79
2023/11/07 03:30:47;;;;;;;7.47;1.27;;;9.80;99.90;;;9.49;100.00;99884.72;5015007;28;19921;-79
2023/11/07 03:33:17;;;;;;;5.82;1.30;;;9.80;99.90;;;9.46;100.00;99879.72;5010857;28;20080;-79
2023/11/07 03:35:46;;;;;;;6.13;1.33;;;9.80;99.90;;;9.42;100.00;99884.81;5011136;28;20064;-79
2023/11/07 03:38:12;;;;;;;5.63;1.20;;;9.80;99.90;;;9.30;100.00;99882.03;5016801;28;20068;-77
2023/11/07 03:40:37;;;;;;;4.35;1.10;;;9.70;99.90;;;9.28;100.00;99872.41;5020946;28;20037;-79
2023/11/07 03:43:04;;;;;;;4.93;1.30;;;9.60;99.90;;;9.21;100.00;99872.47;5018629;28;20049;-78
2023/11/07 03:45:30;;;;;;;5.05;1.20;;;9.50;99.90;;;9.16;100.00;99878.63;5029257;28;20076;-79
2023/11/07 03:47:56;;;;;;;4.90;1.23;;;9.40;99.90;;;9.04;100.00;99873.09;5019944;28;20045;-80
2023/11/07 03:50:25;;;;;;;4.28;1.23;;;9.40;99.90;;;9.10;100.00;99886.84;5016933;28;20092;-79
2023/11/07 03:52:51;;;;;;;4.35;1.23;;;9.30;99.90;;;9.07;100.00;99880.81;5014160;28;20125;-79
2023/11/07 03:55:16;;;;;;;4.75;1.15;;;9.30;99.90;;;9.00;100.00;99877.31;5014524;28;20611;-79
2023/11/07 03:57:42;;;;;;;5.03;1.35;;;9.20;99.90;;;8.87;100.00;99866.56;5020124;28;20152;-79
2023/11/07 04:00:10;;;;;;;4.30;1.20;;;9.20;99.90;;;8.85;100.00;99871.41;5019163;28;20073;-79
2023/11/07 04:02:37;;;;;;;4.75;1.30;;;9.10;99.90;;;8.82;100.00;99883.56;5026747;28;20564;-79
2023/11/07 04:05:03;;;;;;;3.33;1.10;;;9.10;99.90;;;8.77;100.00;99875.25;5014193;28;20066;-79
2023/11/07 04:07:29;;;;;;;4.50;1.20;;;9.10;99.90;;;8.83;100.00;99887.94;5016106;28;20073;-79
2023/11/07 04:09:57;;;;;;;6.05;1.13;;;9.10;99.90;;;8.84;100.00;99886.06;5014437;28;20041;-79
2023/11/07 04:12:23;;;;;;;10.27;1.52;;;9.10;99.90;;;8.79;100.00;99884.00;5014267;28;20037;-79
2023/11/07 04:14:50;;;;;;;1.63;1.02;;;9.10;99.90;;;8.85;100.00;99885.00;5019829;28;20056;-79
2023/11/07 04:17:16;;;;;;;3.38;1.20;;;9.10;99.90;;;8.82;100.00;99896.34;5013878;28;20041;-80
2023/11/07 04:19:42;;;;;;;3.47;1.10;;;9.10;99.90;;;8.75;100.00;99897.22;5016441;28;20041;-79
2023/11/07 04:22:08;;;;;;;3.08;1.30;;;9.00;99.90;;;8.71;100.00;99900.63;5017028;28;20117;-79
2023/11/07 04:24:37;;;;;;;3.30;1.30;;;9.00;99.90;;;8.77;100.00;99899.72;5025086;28;20128;-79
2023/11/07 04:27:04;;;;;;;6.15;1.50;;;9.00;99.90;;;8.63;100.00;99897.13;5020125;28;20044;-78
2023/11/07 04:29:30;;;;;;;6.90;1.30;;;8.90;99.90;;;8.53;100.00;99883.19;5022091;28;20029;-79
2023/11/07 04:31:56;;;;;;;5.75;1.38;;;8.80;99.90;;;8.54;100.00;99895.72;5018847;28;20049;-79
2023/11/07 04:34:22;;;;;;;7.10;1.20;;;8.80;99.90;;;8.53;100.00;99890.53;5014008;28;20034;-78
2023/11/07 04:36:48;;;;;;;5.18;1.20;;;8.80;99.90;;;8.48;100.00;99897.41;5028371;28;20450;-79
2023/11/07 04:39:13;;;;;;;6.03;1.48;;;8.80;99.90;;;8.48;100.00;99899.31;5024576;28;20075;-79
2023/11/07 04:41:40;;;;;;;4.10;1.13;;;8.70;99.90;;;8.46;100.00;99899.50;5019351;28;20083;-79
2023/11/07 04:44:06;;;;;;;3.03;1.00;;;8.70;99.90;;;8.41;100.00;99893.09;5018165;28;20045;-78
2023/11/07 04:46:32;;;;;;;4.43;1.10;;;8.70;99.90;;;8.32;100.00;99887.09;5040182;28;20060;-79
2023/11/07 04:48:58;;;;;;;5.95;1.30;;;8.70;99.90;;;8.39;100.00;99904.16;5012903;28;20045;-79
2023/11/07 04:51:24;;;;;;;5.10;1.27;;;8.70;99.90;;;8.51;100.00;99898.88;5028690;28;20030;-79
2023/11/07 04:53:50;;;;;;;3.38;1.10;;;8.80;99.90;;;8.54;100.00;99897.63;5013196;28;20444;-78
2023/11/07 04:56:16;;;;;;;3.00;1.10;;;8.80;99.90;;;8.56;100.00;99892.78;5016990;28;20041;-79
2023/11/07 04:58:43;;;;;;;3.60;1.17;;;8.90;99.90;;;8.67;100.00;99905.66;5016611;28;20071;-79
2023/11/07 05:01:09;;;;;;;7.25;1.35;;;8.90;99.90;;;8.60;100.00;99894.81;5016630;28;20478;-79
2023/11/07 05:03:36;;;;;;;6.30;1.20;;;8.90;99.90;;;8.62;100.00;99908.22;5015553;28;20030;-79
2023/11/07 05:06:02;;;;;;;3.80;1.17;;;8.90;99.90;;;8.59;100.00;99904.03;5018622;28;20044;-79
2023/11/07 05:08:29;;;;;;;5.65;1.20;;;8.80;99.90;;;8.49;100.00;99904.56;5012073;28;20048;-78
2023/11/07 05:10:54;;;;;;;3.72;1.20;;;8.90;99.90;;;8.59;100.00;99914.91;5015743;28;20041;-79
2023/11/07 05:13:20;;;;;;;2.78;1.08;;;8.80;99.90;;;8.61;100.00;99904.66;5018914;28;20176;-79
2023/11/07 05:15:47;;;;;;;5.45;1.20;;;8.80;99.90;;;8.60;100.00;99907.59;5014406;28;20385;-78
2023/11/07 05:18:14;;;;;;;7.45;1.33;;;8.90;99.90;;;8.66;100.00;99920.31;5022490;28;20038;-79
2023/11/07 05:20:44;;;;;;;5.65;1.35;;;9.00;99.90;;;8.76;100.00;99915.22;5014709;28;20041;-76
2023/11/07 05:23:10;;;;;;;4.75;1.20;;;9.10;99.90;;;8.84;100.00;99921.41;5034252;28;20095;-78
2023/11/07 05:25:36;;;;;;;4.15;0.98;;;9.20;99.90;;;8.89;100.00;99924.28;5027842;28;20038;-79
2023/11/07 05:28:04;;;;;;;2.88;0.90;;;9.20;99.90;;;8.86;100.00;99925.56;5024313;28;20041;-79
2023/11/07 05:30:30;;;;;;;4.85;1.33;;;9.20;99.90;;;8.84;100.00;99924.13;5023204;28;20041;-80
2023/11/07 05:32:56;;;;;;;4.55;1.15;;;9.20;99.90;;;8.80;100.00;99920.22;5019588;28;20044;-79
2023/11/07 05:35:22;;;;;;;4.13;1.00;;;9.20;99.90;;;8.82;100.00;99924.34;5034905;28;20346;-79
2023/11/07 05:37:48;;;;;;;5.10;1.13;;;9.20;99.90;;;8.92;100.00;99935.56;5015815;28;20540;-79
2023/11/07 05:40:16;;;;;;;6.35;1.67;;;9.30;99.90;;;8.86;100.00;99930.19;5020825;28;20041;-79
2023/11/07 05:42:43;;;;;;;3.22;1.05;;;9.30;99.90;;;8.87;100.00;99935.38;5015919;28;20087;-79
2023/11/07 05:45:10;;;;;;;4.38;1.20;;;9.30;99.90;;;8.92;100.00;99930.13;5016679;28;20555;-78
2023/11/07 05:47:37;;;;;;;4.35;1.08;;;9.30;99.90;;;8.95;100.00;99938.91;5034016;28;20060;-78
2023/11/07 05:50:06;;;;;;;4.93;1.27;;;9.40;99.90;;;8.89;100.00;99932.47;5016276;28;20041;-78
2023/11/07 05:52:33;;;;;;;4.68;1.10;;;9.40;99.90;;;8.98;100.00;99942.00;5017418;28;20045;-78
2023/11/07 05:55:01;;;;;;;3.55;1.15;;;9.50;99.90;;;8.97;100.00;99934.88;5040736;28;20071;-80
2023/11/07 05:57:27;;;;;;;;;;;9.50;99.90;;;9.00;100.00;99930.91;5024310;28;20037;-78
2023/11/07 05:59:52;;;;;;;3.83;1.10;;;9.50;99.90;;;9.03;100.00;99941.31;5012730;28;19917;-79
2023/11/07 06:02:18;;;;;;;4.30;0.90;;;9.50;99.90;;;9.11;100.00;99948.38;5015706;28;20092;-78
2023/11/07 06:04:44;;;;;;;2.38;0.88;;;9.60;99.90;;;9.23;100.00;99945.75;5020436;28;20038;-79
2023/11/07 06:07:10;;;;;;;3.05;1.08;;;9.60;99.90;;;9.21;100.00;99943.25;5025619;28;20037;-78
2023/11/07 06:09:36;;;;;;;3.65;0.98;;;9.60;99.90;;;9.12;100.00;99939.16;5021312;28;20532;-78
2023/11/07 06:12:01;;;;;;;3.33;0.80;;;9.60;99.90;;;9.15;100.00;99942.28;5012727;28;20131;-77
2023/11/07 06:14:27;;;;;;;3.10;0.90;;;9.60;99.90;;;9.23;100.00;99941.13;5015924;28;20470;-79
2023/11/07 06:16:53;;;;;;;5.47;1.30;;;9.60;99.90;;;9.27;100.00;99942.34;5022553;28;20677;-77
2023/11/07 06:19:22;;;;;;;5.18;1.00;;;9.60;99.90;;;9.28;100.00;99954.06;5019545;28;20036;-79
2023/11/07 06:21:49;;;;;;;3.00;1.00;;;9.60;99.90;;;9.21;100.00;99951.41;5023072;28;20120;-78
2023/11/07 06:24:18;;;;;;;10.65;2.22;;;9.60;99.90;;;9.25;100.00;99959.97;5013352;28;20084;-78
2023/11/07 06:26:46;;;;;;;5.80;1.00;;;9.60;99.90;;;9.29;100.00;99958.44;5015656;28;20037;-79
2023/11/07 06:29:15;;;;;;;4.70;0.95;;;9.60;99.90;;;9.18;100.00;99963.59;5012220;28;20521;-78
2023/11/07 06:31:45;;;;;;;5.10;0.98;;;9.60;99.90;;;9.22;100.00;99963.94;5020739;28;20041;-76
2023/11/07 06:34:11;;;;;;;3.58;0.90;;;9.50;99.90;;;9.14;100.00;99950.66;5040111;28;20033;-77
2023/11/07 06:36:37;;;;;;;5.75;1.02;;;9.50;99.90;;;9.16;100.00;99959.41;5024106;28;20489;-79
2023/11/07 06:39:03;;;;;;;4.07;0.82;;;9.60;99.90;;;9.22;100.00;99963.94;5019405;28;20048;-78
2023/11/07 06:41:30;;;;;;;5.00;1.35;;;9.60;99.90;;;9.25;100.00;99959.97;5019690;28;20143;-78
2023/11/07 06:43:56;;;;;;;5.50;1.10;;;9.60;99.90;;;9.26;100.00;99965.16;5017823;28;20111;-77
2023/11/07 06:46:22;;;;;;;4.93;1.05;;;9.70;99.90;;;9.20;100.00;99964.19;5010646;28;20048;-77
2023/11/07 06:48:48;;;;;;;2.90;0.80;;;9.70;99.90;;;9.20;100.00;99961.47;5020171;28;20053;-79
2023/11/07 06:51:14;;;;;;;4.72;1.05;;;9.60;99.90;;;9.23;100.00;99967.53;5010043;28;20050;-76
2023/11/07 06:53:42;;;;;;;3.90;1.17;;;9.60;99.90;;;9.15;100.00;99963.19;5010590;28;20108;-79
2023/11/07 06:56:08;;;;;;;6.40;1.42;;;9.60;99.90;;;9.17;100.00;99970.09;5013124;28;20082;-77
2023/11/07 06:58:35;;;;;;;5.53;1.40;;;9.60;99.90;;;9.15;100.00;99968.63;5012807;28;22129;-78
2023/11/07 07:01:03;;;;;;;3.78;1.20;;;9.60;99.90;;;9.21;100.00;99982.19;5016957;28;20112;-77
2023/11/07 07:03:29;;;;;;;3.83;1.00;;;9.60;99.90;;;9.23;100.00;99979.22;5011885;28;20394;-78
2023/11/07 07:05:55;;;;;;;6.78;1.25;;;9.60;99.90;;;9.25;100.00;99982.56;5018221;28;20121;-78
2023/11/07 07:08:23;;;;;;;4.68;0.90;;;9.60;99.90;;;9.42;100.00;99993.72;5019405;28;20397;-76
2023/11/07 07:10:50;;;;;;;6.95;1.27;;;9.70;99.90;;;9.52;100.00;99992.34;5016662;28;20041;-77
2023/11/07 07:13:18;;;;;;;3.53;0.77;;;9.80;99.90;;;9.52;100.00;99971.38;5022368;28;20052;-78
2023/11/07 07:15:43;;;;;;;4.60;1.20;;;9.90;99.90;;;9.70;100.00;99980.63;5015755;28;20119;-77
2023/11/07 07:18:10;;;;;;;4.50;0.93;;;10.00;99.90;;;9.92;100.00;99994.59;5015670;28;20084;-78
2023/11/07 07:20:36;;;;;;;2.63;0.70;;;10.10;99.90;;;9.87;100.00;99992.59;5022619;28;20030;-77
2023/11/07 07:23:06;;;;;;;3.80;1.30;;;10.20;99.90;;;9.81;100.00;99987.22;5021700;28;20129;-78
2023/11/07 07:25:32;;;;;;;5.90;1.10;;;10.20;99.90;;;9.83;100.00;99983.22;5018723;28;20049;-77
2023/11/07 07:28:06;;;;;;;5.18;0.90;;;10.20;99.90;;;9.87;100.00;99989.88;5030200;28;20029;-79
2023/11/07 07:30:32;;;;;;;4.75;1.00;;;10.20;99.90;;;9.85;100.00;99986.53;5021834;28;20371;-77
2023/11/07 07:32:59;;;;;;;5.78;0.88;;;10.20;99.90;;;9.79;100.00;99992.88;5019084;28;20083;-77
2023/11/07 07:35:32;;;;;;;3.03;0.68;;;10.20;99.90;;;9.93;100.00;99994.38;5024602;28;20062;-78
2023/11/07 07:38:03;;;;;;;4.82;0.70;;;10.20;99.90;;;9.85;100.00;99994.72;5035016;28;20045;-77
2023/11/07 07:40:31;;;;;;;1.35;0.70;;;10.20;99.90;;;9.87;100.00;99998.03;5028266;28;20140;-76
2023/11/07 07:42:58;;;;;;;4.15;1.38;;;10.20;99.90;;;9.97;100.00;100010.28;5027601;28;20042;-77
2023/11/07 07:45:26;;;;;;;2.92;0.77;;;10.20;99.90;;;9.87;100.00;100017.09;5026421;28;20034;-77
2023/11/07 07:47:52;;;;;;;11.23;2.22;;;10.20;99.90;;;9.90;100.00;100015.81;5028135;28;20049;-78
2023/11/07 07:50:19;;;;;;;4.95;1.10;;;10.20;99.90;;;9.91;100.00;100021.03;5025419;28;20045;-78
2023/11/07 07:52:48;;;;;;;2.83;1.00;;;10.30;99.90;;;10.07;100.00;100016.84;5041756;28;20030;-78
2023/11/07 07:55:14;;;;;;;4.93;1.00;;;10.40;99.90;;;10.22;100.00;100015.63;5029806;28;20092;-78
2023/11/07 07:57:41;;;;;;;6.30;1.38;;;10.50;99.90;;;10.37;100.00;100017.94;5028326;28;20029;-78
2023/11/07 08:00:18;;;;;;;4.80;0.85;;;10.60;99.90;;;10.35;100.00;100003.72;5025084;28;20043;-80
2023/11/07 08:02:45;;;;;;;4.45;0.80;;;10.70;99.90;;;10.45;100.00;100016.81;5024856;28;20033;-78
2023/11/07 08:05:16;;;;;;;6.43;1.37;;;10.80;99.90;;;10.67;100.00;100013.56;5028237;28;20034;-78
2023/11/07 08:07:43;;;;;;;4.47;1.10;;;10.90;99.90;;;10.72;100.00;100005.50;5014259;28;20331;-76
2023/11/07 08:10:10;;;;;;;5.07;0.90;;;11.00;99.90;;;10.74;100.00;100000.63;5020891;28;20504;-79
2023/11/07 08:12:36;;;;;;;2.40;0.70;;;11.10;99.90;;;10.84;100.00;100010.97;5034731;28;20082;-76
2023/11/07 08:15:07;;;;;;;3.90;1.00;;;11.20;99.90;;;10.76;100.00;99996.63;5027621;28;20088;-78
2023/11/07 08:17:33;;;;;;;3.28;0.80;;;11.30;99.90;;;11.00;100.00;100013.03;5021041;28;20120;-77
2023/11/07 08:19:59;;;;;;;2.38;0.63;;;11.30;99.90;;;11.15;100.00;100019.97;5019283;28;20168;-76
2023/11/07 08:22:25;;;;;;;2.45;0.80;;;11.40;99.90;;;11.18;100.00;100016.75;5013328;28;20085;-78
2023/11/07 08:24:51;;;;;;;1.83;0.60;;;11.50;99.90;;;11.14;100.00;100023.72;5014357;28;20050;-77
2023/11/07 08:27:16;;;;;;;4.25;0.90;;;11.50;99.90;;;11.37;100.00;100022.94;5018505;28;20049;-78
2023/11/07 08:29:43;;;;;;;3.47;0.80;;;11.60;99.90;;;11.30;100.00;100024.94;5014103;28;20037;-78
2023/11/07 08:32:12;;;;;;;2.53;0.77;;;11.60;99.90;;;11.34;100.00;100018.75;5019237;28;20084;-78
2023/11/07 08:34:40;;;;;;;4.28;0.80;;;11.70;99.90;;;11.57;100.00;100035.41;5017814;28;20099;-77
2023/11/07 08:37:06;;;;;;;4.43;0.90;;;11.80;99.90;;;11.72;100.00;100024.78;5017070;28;20037;-77
2023/11/07 08:39:33;;;;;;;4.63;0.85;;;12.00;99.90;;;11.80;100.00;100026.34;5024378;28;20075;-79
2023/11/07 08:41:59;;;;;;;5.53;1.03;;;12.10;99.90;;;11.87;100.00;100032.50;5020963;28;20065;-79
2023/11/07 08:44:25;;;;;;;4.25;1.00;;;12.20;99.90;;;12.00;100.00;100015.00;5013563;28;20367;-78
2023/11/07 08:46:50;;;;;;;5.03;0.90;;;12.30;99.90;;;12.17;100.00;100041.63;5013493;28;20034;-77
2023/11/07 08:49:16;;;;;;;4.68;0.82;;;12.40;99.90;;;12.23;100.00;100046.09;5013172;28;20041;-79
2023/11/07 08:51:43;;;;;;;3.17;0.73;;;12.50;99.90;;;12.01;100.00;100037.75;5013992;28;20057;-77
2023/11/07 08:54:09;;;;;;;4.83;0.93;;;12.40;99.90;;;12.11;100.00;100048.88;5015231;28;20080;-77
2023/11/07 08:56:35;;;;;;;2.78;0.75;;;12.30;99.90;;;12.05;100.00;100055.31;5017133;28;20295;-78
2023/11/07 08:59:01;;;;;;;3.08;0.60;;;12.40;99.90;;;12.00;100.00;100052.44;5014431;28;20057;-78
2023/11/07 09:01:27;;;;;;;3.42;0.73;;;12.40;99.90;;;11.90;100.00;100045.66;5014519;28;20038;-78
2023/11/07 09:03:54;;;;;;;2.72;0.80;;;12.40;99.90;;;11.92;100.00;100057.19;5010910;28;20038;-79
2023/11/07 09:06:19;;;;;;;3.00;0.90;;;12.40;99.90;;;11.93;100.00;100055.31;5018699;28;20030;-78
2023/11/07 09:08:46;;;;;;;3.22;0.70;;;12.30;99.90;;;11.86;100.00;100058.16;5010448;28;20060;-78
2023/11/07 09:11:12;;;;;;;2.83;0.90;;;12.30;99.90;;;11.68;100.00;100047.38;5013685;28;20034;-79
2023/11/07 09:13:39;;;;;;;3.92;0.88;;;12.30;99.90;;;11.78;100.00;100067.56;5012081;28;20061;-76
2023/11/07 09:16:08;;;;;;;3.08;0.90;;;;;;;11.83;100.00;100066.03;5014703;28;20045;-78
2023/11/07 09:18:36;;;;;;;2.67;0.65;;;12.30;99.90;;;11.91;100.00;100055.53;5010160;28;20461;-78
2023/11/07 09:21:01;;;;;;;3.30;0.90;;;12.30;99.90;;;12.09;100.00;100067.44;5016165;28;20116;-79
2023/11/07 09:23:27;;;;;;;5.13;1.23;;;12.40;99.90;;;12.25;100.00;100065.84;5014637;28;20046;-79
2023/11/07 09:25:53;;;;;;;2.75;0.90;;;12.50;99.90;;;12.45;100.00;100070.88;5015672;28;20472;-78
2023/11/07 09:28:19;;;;;;;2.25;0.70;;;;;;;12.99;100.00;100075.16;5020754;28;20504;-80
2023/11/07 09:30:46;;;;;;;4.90;0.77;;;12.80;99.90;;;13.01;100.00;100072.19;5016599;28;20042;-79
2023/11/07 09:33:12;;;;;;;3.40;0.70;;;;;;;13.53;100.00;100076.63;5011091;28;20042;-79
2023/11/07 09:35:39;;;;;;;2.97;0.70;;;;;;;14.02;100.00;100075.09;5014168;28;20030;-80
2023/11/07 09:38:05;;;;;;;1.92;0.50;;;;;;;14.44;100.00;100071.78;5012943;28;20077;-81
2023/11/07 09:40:32;;;;;;;2.65;0.70;;;;;;;14.88;100.00;100068.16;5011920;28;20627;-79
2023/11/07 09:43:01;;;;;;;2.63;0.75;;;13.90;99.90;;;14.29;100.00;100077.94;4990235;28;20413;-79
2023/11/07 09:45:35;;;;;;;2.20;0.75;;;15.90;99.90;;;14.41;100.00;100085.19;5008357;28;20033;-79
2023/11/07 09:48:02;;;;;;;3.75;0.70;;;15.40;99.90;;;14.16;100.00;100081.88;5037672;28;20077;-80
2023/11/07 09:50:29;;;;;;;1.52;0.60;;;14.90;99.90;;;14.13;100.00;100096.13;5016023;28;20595;-78
2023/11/07 09:52:56;;;;;;;1.90;0.70;;;14.60;99.90;;;13.63;100.00;100076.78;5000672;28;20037;-78
2023/11/07 09:55:28;;;;;;;3.20;0.83;;;;;;;13.12;100.00;100090.44;5008360;28;20044;-79
2023/11/07 09:58:04;;;;;;;3.55;0.65;;;14.20;99.90;;;13.05;100.00;100079.66;5012278;28;20523;-80
2023/11/07 10:00:33;;;;;;;4.32;0.80;;;13.40;99.90;;;13.01;100.00;100073.03;5030640;28;20667;-78
2023/11/07 10:03:00;;;;;;;5.43;0.88;;;13.40;99.90;;;13.57;100.00;100068.72;5026464;28;20544;-79
2023/11/07 10:05:31;;;;;;;3.08;0.95;;;13.50;99.90;;;14.43;100.00;100077.53;5039024;28;20060;-80
2023/11/07 10:07:57;;;;;;;0.82;0.52;;;;;;;15.60;98.28;100076.16;5002150;28;20038;-78
2023/11/07 10:10:24;;;;;;;4.50;1.15;;;;;;;15.24;99.26;100075.91;5007070;28;20186;-80
2023/11/07 10:12:51;;;;;;;1.98;0.65;;;14.20;99.90;;;15.03;100.00;100085.88;5006812;28;20729;-79
2023/11/07 10:15:20;;;;;;;2.22;0.50;;;15.20;99.90;;;14.31;100.00;100083.16;5010337;28;20041;-79
2023/11/07 10:18:04;;;;;;;1.75;0.60;;;;;;;16.07;97.38;100070.97;5015582;28;20049;-79
2023/11/07 10:20:32;;;;;;;2.92;0.80;;;;;;;17.94;82.34;100064.56;5017293;28;20466;-79
2023/11/07 10:22:59;;;;;;;1.92;0.43;;;;;;;17.43;79.65;100061.91;5005183;28;20053;-80
2023/11/07 10:25:36;;;;;;;1.80;0.77;;;;;;;16.45;83.48;100062.59;5012247;28;20041;-81